sensor_id;sensor_type;location;lat;lon;timestamp;temperature;humidity
6714;DHT22;3394;51.246;6.792;2022-07-01T00:00:30;15.80;88.30
6714;DHT22;3394;51.246;6.792;2022-07-01T00:01:28;15.80;88.80
6714;DHT22;3394;51.246;6.792;2022-07-01T00:02:27;15.70;89.20
6714;DHT22;3394;51.246;6.792;2022-07-01T00:03:25;15.70;89.20
6714;DHT22;3394;51.246;6.792;2022-07-01T00:04:24;15.70;89.40
6714;DHT22;3394;51.246;6.792;2022-07-01T00:05:24;15.80;90.00
6714;DHT22;3394;51.246;6.792;2022-07-01T00:06:23;15.80;90.30
6714;DHT22;3394;51.246;6.792;2022-07-01T00:07:21;15.70;89.50
6714;DHT22;3394;51.246;6.792;2022-07-01T00:08:20;15.70;89.40
6714;DHT22;3394;51.246;6.792;2022-07-01T00:09:18;15.70;89.70
6714;DHT22;3394;51.246;6.792;2022-07-01T00:10:17;15.70;90.10
6714;DHT22;3394;51.246;6.792;2022-07-01T00:11:15;15.70;89.90
6714;DHT22;3394;51.246;6.792;2022-07-01T00:12:14;15.70;89.20
6714;DHT22;3394;51.246;6.792;2022-07-01T00:13:12;15.70;89.70
6714;DHT22;3394;51.246;6.792;2022-07-01T00:14:12;15.70;90.20
6714;DHT22;3394;51.246;6.792;2022-07-01T00:15:10;15.70;89.50
6714;DHT22;3394;51.246;6.792;2022-07-01T00:16:09;15.70;89.50
6714;DHT22;3394;51.246;6.792;2022-07-01T00:17:07;15.70;90.00
6714;DHT22;3394;51.246;6.792;2022-07-01T00:18:06;15.70;89.60
6714;DHT22;3394;51.246;6.792;2022-07-01T00:19:04;15.80;90.10
6714;DHT22;3394;51.246;6.792;2022-07-01T00:20:04;15.80;90.60
6714;DHT22;3394;51.246;6.792;2022-07-01T00:21:02;15.90;90.60
6714;DHT22;3394;51.246;6.792;2022-07-01T00:22:01;15.90;90.30
6714;DHT22;3394;51.246;6.792;2022-07-01T00:22:59;15.90;90.30
6714;DHT22;3394;51.246;6.792;2022-07-01T00:23:58;15.90;89.50
6714;DHT22;3394;51.246;6.792;2022-07-01T00:24:56;15.90;89.10
6714;DHT22;3394;51.246;6.792;2022-07-01T00:25:55;15.80;89.10
6714;DHT22;3394;51.246;6.792;2022-07-01T00:26:54;15.90;90.00
6714;DHT22;3394;51.246;6.792;2022-07-01T00:27:53;15.90;90.40
6714;DHT22;3394;51.246;6.792;2022-07-01T00:28:51;15.90;89.70
6714;DHT22;3394;51.246;6.792;2022-07-01T00:29:51;15.90;90.10
6714;DHT22;3394;51.246;6.792;2022-07-01T00:30:49;15.90;90.20
6714;DHT22;3394;51.246;6.792;2022-07-01T00:31:48;15.90;90.20
6714;DHT22;3394;51.246;6.792;2022-07-01T00:32:46;15.90;90.10
6714;DHT22;3394;51.246;6.792;2022-07-01T00:33:45;16.00;90.40
6714;DHT22;3394;51.246;6.792;2022-07-01T00:34:43;15.90;89.70
6714;DHT22;3394;51.246;6.792;2022-07-01T00:35:42;15.90;89.70
6714;DHT22;3394;51.246;6.792;2022-07-01T00:36:41;15.90;89.40
6714;DHT22;3394;51.246;6.792;2022-07-01T00:37:40;16.00;89.30
6714;DHT22;3394;51.246;6.792;2022-07-01T00:38:38;15.90;87.10
6714;DHT22;3394;51.246;6.792;2022-07-01T00:39:37;15.90;86.70
6714;DHT22;3394;51.246;6.792;2022-07-01T00:40:35;15.90;86.90
6714;DHT22;3394;51.246;6.792;2022-07-01T00:41:34;16.00;87.00
6714;DHT22;3394;51.246;6.792;2022-07-01T00:42:32;16.00;85.80
6714;DHT22;3394;51.246;6.792;2022-07-01T00:43:35;15.90;85.80
6714;DHT22;3394;51.246;6.792;2022-07-01T00:44:33;15.90;84.20
6714;DHT22;3394;51.246;6.792;2022-07-01T00:45:33;15.80;83.50
6714;DHT22;3394;51.246;6.792;2022-07-01T00:46:32;15.80;84.30
6714;DHT22;3394;51.246;6.792;2022-07-01T00:47:31;15.70;84.20
6714;DHT22;3394;51.246;6.792;2022-07-01T00:48:31;15.70;84.10
6714;DHT22;3394;51.246;6.792;2022-07-01T00:49:31;15.70;83.90
6714;DHT22;3394;51.246;6.792;2022-07-01T00:50:29;15.70;84.60
6714;DHT22;3394;51.246;6.792;2022-07-01T00:51:28;15.60;85.50
6714;DHT22;3394;51.246;6.792;2022-07-01T00:52:26;15.60;85.40
6714;DHT22;3394;51.246;6.792;2022-07-01T00:53:25;15.70;85.00
6714;DHT22;3394;51.246;6.792;2022-07-01T00:54:25;15.60;85.10
6714;DHT22;3394;51.246;6.792;2022-07-01T00:55:25;15.60;84.80
6714;DHT22;3394;51.246;6.792;2022-07-01T00:56:22;15.60;84.50
6714;DHT22;3394;51.246;6.792;2022-07-01T00:57:21;15.60;84.80
6714;DHT22;3394;51.246;6.792;2022-07-01T00:58:19;15.60;84.10
6714;DHT22;3394;51.246;6.792;2022-07-01T00:59:18;15.60;84.20
6714;DHT22;3394;51.246;6.792;2022-07-01T01:00:18;15.60;84.00
6714;DHT22;3394;51.246;6.792;2022-07-01T01:01:20;15.60;84.60
6714;DHT22;3394;51.246;6.792;2022-07-01T01:02:18;15.60;84.50
6714;DHT22;3394;51.246;6.792;2022-07-01T01:03:17;15.60;84.70
6714;DHT22;3394;51.246;6.792;2022-07-01T01:04:15;15.60;85.00
6714;DHT22;3394;51.246;6.792;2022-07-01T01:05:14;15.60;85.20
6714;DHT22;3394;51.246;6.792;2022-07-01T01:06:12;15.60;85.40
6714;DHT22;3394;51.246;6.792;2022-07-01T01:07:11;15.60;85.40
6714;DHT22;3394;51.246;6.792;2022-07-01T01:08:11;15.60;85.30
6714;DHT22;3394;51.246;6.792;2022-07-01T01:09:09;15.60;85.60
6714;DHT22;3394;51.246;6.792;2022-07-01T01:10:09;15.60;86.20
6714;DHT22;3394;51.246;6.792;2022-07-01T01:11:07;15.60;85.90
6714;DHT22;3394;51.246;6.792;2022-07-01T01:12:07;15.60;86.60
6714;DHT22;3394;51.246;6.792;2022-07-01T01:13:05;15.70;87.30
6714;DHT22;3394;51.246;6.792;2022-07-01T01:14:04;15.70;87.60
6714;DHT22;3394;51.246;6.792;2022-07-01T01:15:02;15.70;88.00
6714;DHT22;3394;51.246;6.792;2022-07-01T01:16:02;15.80;88.40
6714;DHT22;3394;51.246;6.792;2022-07-01T01:17:01;15.80;88.00
6714;DHT22;3394;51.246;6.792;2022-07-01T01:18:00;15.80;87.50
6714;DHT22;3394;51.246;6.792;2022-07-01T01:18:58;15.80;87.70
6714;DHT22;3394;51.246;6.792;2022-07-01T01:19:57;15.80;87.90
6714;DHT22;3394;51.246;6.792;2022-07-01T01:20:56;15.90;88.90
6714;DHT22;3394;51.246;6.792;2022-07-01T01:21:55;15.90;88.80
6714;DHT22;3394;51.246;6.792;2022-07-01T01:22:53;15.90;87.60
6714;DHT22;3394;51.246;6.792;2022-07-01T01:23:52;15.90;86.40
6714;DHT22;3394;51.246;6.792;2022-07-01T01:24:50;15.80;87.10
6714;DHT22;3394;51.246;6.792;2022-07-01T01:25:49;15.90;88.10
6714;DHT22;3394;51.246;6.792;2022-07-01T01:26:47;15.80;88.30
6714;DHT22;3394;51.246;6.792;2022-07-01T01:27:46;15.90;87.70
6714;DHT22;3394;51.246;6.792;2022-07-01T01:28:44;15.90;87.20
6714;DHT22;3394;51.246;6.792;2022-07-01T01:29:44;15.80;86.60
6714;DHT22;3394;51.246;6.792;2022-07-01T01:30:41;15.80;86.80
6714;DHT22;3394;51.246;6.792;2022-07-01T01:31:40;15.90;87.10
6714;DHT22;3394;51.246;6.792;2022-07-01T01:32:39;15.80;86.70
6714;DHT22;3394;51.246;6.792;2022-07-01T01:33:39;15.80;86.50
6714;DHT22;3394;51.246;6.792;2022-07-01T01:34:38;15.80;86.80
6714;DHT22;3394;51.246;6.792;2022-07-01T01:35:37;15.80;86.10
6714;DHT22;3394;51.246;6.792;2022-07-01T01:36:37;15.70;86.70
6714;DHT22;3394;51.246;6.792;2022-07-01T01:37:36;15.80;87.50
6714;DHT22;3394;51.246;6.792;2022-07-01T01:38:34;15.90;87.40
6714;DHT22;3394;51.246;6.792;2022-07-01T01:39:33;15.90;87.50
6714;DHT22;3394;51.246;6.792;2022-07-01T01:40:34;15.90;87.70
6714;DHT22;3394;51.246;6.792;2022-07-01T01:41:33;15.90;88.20
6714;DHT22;3394;51.246;6.792;2022-07-01T01:42:31;15.90;86.30
6714;DHT22;3394;51.246;6.792;2022-07-01T01:43:30;15.90;86.30
6714;DHT22;3394;51.246;6.792;2022-07-01T01:44:28;15.90;86.40
6714;DHT22;3394;51.246;6.792;2022-07-01T01:45:27;15.90;85.70
6714;DHT22;3394;51.246;6.792;2022-07-01T01:46:25;15.90;85.80
6714;DHT22;3394;51.246;6.792;2022-07-01T01:47:27;15.90;85.80
6714;DHT22;3394;51.246;6.792;2022-07-01T01:48:25;15.90;84.60
6714;DHT22;3394;51.246;6.792;2022-07-01T01:49:24;15.90;84.60
6714;DHT22;3394;51.246;6.792;2022-07-01T01:50:22;15.90;85.20
6714;DHT22;3394;51.246;6.792;2022-07-01T01:51:21;15.90;85.50
6714;DHT22;3394;51.246;6.792;2022-07-01T01:52:20;15.90;85.80
6714;DHT22;3394;51.246;6.792;2022-07-01T01:53:19;15.90;85.60
6714;DHT22;3394;51.246;6.792;2022-07-01T01:54:17;15.90;85.70
6714;DHT22;3394;51.246;6.792;2022-07-01T01:55:16;15.90;85.70
6714;DHT22;3394;51.246;6.792;2022-07-01T01:56:14;15.90;86.60
6714;DHT22;3394;51.246;6.792;2022-07-01T01:57:13;16.00;84.20
6714;DHT22;3394;51.246;6.792;2022-07-01T01:58:11;16.00;84.40
6714;DHT22;3394;51.246;6.792;2022-07-01T01:59:10;16.00;84.80
6714;DHT22;3394;51.246;6.792;2022-07-01T02:00:11;16.00;84.70
6714;DHT22;3394;51.246;6.792;2022-07-01T02:01:10;15.90;84.80
6714;DHT22;3394;51.246;6.792;2022-07-01T02:02:08;16.00;85.30
6714;DHT22;3394;51.246;6.792;2022-07-01T02:03:08;16.00;85.90
6714;DHT22;3394;51.246;6.792;2022-07-01T02:04:05;16.00;85.90
6714;DHT22;3394;51.246;6.792;2022-07-01T02:05:07;16.00;86.80
6714;DHT22;3394;51.246;6.792;2022-07-01T02:06:06;16.00;86.40
6714;DHT22;3394;51.246;6.792;2022-07-01T02:07:05;16.00;85.00
6714;DHT22;3394;51.246;6.792;2022-07-01T02:08:04;16.00;81.40
6714;DHT22;3394;51.246;6.792;2022-07-01T02:09:03;15.90;81.90
6714;DHT22;3394;51.246;6.792;2022-07-01T02:10:01;15.90;82.80
6714;DHT22;3394;51.246;6.792;2022-07-01T02:11:00;15.90;81.20
6714;DHT22;3394;51.246;6.792;2022-07-01T02:11:58;15.80;81.00
6714;DHT22;3394;51.246;6.792;2022-07-01T02:12:57;15.70;81.80
6714;DHT22;3394;51.246;6.792;2022-07-01T02:13:55;15.70;82.60
6714;DHT22;3394;51.246;6.792;2022-07-01T02:14:54;15.70;82.60
6714;DHT22;3394;51.246;6.792;2022-07-01T02:15:52;15.70;82.60
6714;DHT22;3394;51.246;6.792;2022-07-01T02:16:51;15.70;83.20
6714;DHT22;3394;51.246;6.792;2022-07-01T02:17:49;15.70;84.30
6714;DHT22;3394;51.246;6.792;2022-07-01T02:18:49;15.70;83.60
6714;DHT22;3394;51.246;6.792;2022-07-01T02:19:47;15.70;83.00
6714;DHT22;3394;51.246;6.792;2022-07-01T02:20:46;15.70;81.30
6714;DHT22;3394;51.246;6.792;2022-07-01T02:21:43;15.70;81.20
6714;DHT22;3394;51.246;6.792;2022-07-01T02:22:42;15.70;82.00
6714;DHT22;3394;51.246;6.792;2022-07-01T02:23:42;15.70;82.20
6714;DHT22;3394;51.246;6.792;2022-07-01T02:24:40;15.60;81.60
6714;DHT22;3394;51.246;6.792;2022-07-01T02:25:38;15.60;82.50
6714;DHT22;3394;51.246;6.792;2022-07-01T02:26:37;15.60;82.50
6714;DHT22;3394;51.246;6.792;2022-07-01T02:27:35;15.60;82.30
6714;DHT22;3394;51.246;6.792;2022-07-01T02:28:35;15.60;82.50
6714;DHT22;3394;51.246;6.792;2022-07-01T02:29:33;15.60;82.50
6714;DHT22;3394;51.246;6.792;2022-07-01T02:30:31;15.50;82.40
6714;DHT22;3394;51.246;6.792;2022-07-01T02:31:32;15.50;82.50
6714;DHT22;3394;51.246;6.792;2022-07-01T02:32:32;15.50;83.10
6714;DHT22;3394;51.246;6.792;2022-07-01T02:33:30;15.50;82.40
6714;DHT22;3394;51.246;6.792;2022-07-01T02:34:29;15.40;83.10
6714;DHT22;3394;51.246;6.792;2022-07-01T02:35:27;15.40;84.00
6714;DHT22;3394;51.246;6.792;2022-07-01T02:36:26;15.50;83.90
6714;DHT22;3394;51.246;6.792;2022-07-01T02:37:24;15.40;83.40
6714;DHT22;3394;51.246;6.792;2022-07-01T02:38:23;15.50;83.50
6714;DHT22;3394;51.246;6.792;2022-07-01T02:39:23;15.50;83.60
6714;DHT22;3394;51.246;6.792;2022-07-01T02:40:22;15.50;83.20
6714;DHT22;3394;51.246;6.792;2022-07-01T02:41:19;15.50;83.00
6714;DHT22;3394;51.246;6.792;2022-07-01T02:42:18;15.50;83.20
6714;DHT22;3394;51.246;6.792;2022-07-01T02:43:23;15.50;82.40
6714;DHT22;3394;51.246;6.792;2022-07-01T02:44:22;15.50;82.60
6714;DHT22;3394;51.246;6.792;2022-07-01T02:45:20;15.50;82.40
6714;DHT22;3394;51.246;6.792;2022-07-01T02:46:19;15.50;82.40
6714;DHT22;3394;51.246;6.792;2022-07-01T02:47:17;15.50;82.40
6714;DHT22;3394;51.246;6.792;2022-07-01T02:48:16;15.50;82.40
6714;DHT22;3394;51.246;6.792;2022-07-01T02:49:15;15.50;83.10
6714;DHT22;3394;51.246;6.792;2022-07-01T02:50:14;15.50;82.40
6714;DHT22;3394;51.246;6.792;2022-07-01T02:51:13;15.40;82.30
6714;DHT22;3394;51.246;6.792;2022-07-01T02:52:12;15.40;82.60
6714;DHT22;3394;51.246;6.792;2022-07-01T02:53:10;15.40;82.90
6714;DHT22;3394;51.246;6.792;2022-07-01T02:54:08;15.40;83.10
6714;DHT22;3394;51.246;6.792;2022-07-01T02:55:09;15.50;82.80
6714;DHT22;3394;51.246;6.792;2022-07-01T02:56:08;15.50;83.20
6714;DHT22;3394;51.246;6.792;2022-07-01T02:57:06;15.50;83.70
6714;DHT22;3394;51.246;6.792;2022-07-01T02:58:05;15.50;83.90
6714;DHT22;3394;51.246;6.792;2022-07-01T02:59:03;15.50;84.20
6714;DHT22;3394;51.246;6.792;2022-07-01T03:00:04;15.50;84.20
6714;DHT22;3394;51.246;6.792;2022-07-01T03:01:03;15.50;83.00
6714;DHT22;3394;51.246;6.792;2022-07-01T03:02:02;15.50;82.40
6714;DHT22;3394;51.246;6.792;2022-07-01T03:03:00;15.50;81.10
6714;DHT22;3394;51.246;6.792;2022-07-01T03:03:59;15.50;81.30
6714;DHT22;3394;51.246;6.792;2022-07-01T03:04:57;15.50;81.80
6714;DHT22;3394;51.246;6.792;2022-07-01T03:05:57;15.50;82.10
6714;DHT22;3394;51.246;6.792;2022-07-01T03:06:55;15.40;82.30
6714;DHT22;3394;51.246;6.792;2022-07-01T03:07:54;15.40;82.30
6714;DHT22;3394;51.246;6.792;2022-07-01T03:08:52;15.40;82.40
6714;DHT22;3394;51.246;6.792;2022-07-01T03:09:51;15.40;82.60
6714;DHT22;3394;51.246;6.792;2022-07-01T03:10:50;15.40;83.00
6714;DHT22;3394;51.246;6.792;2022-07-01T03:11:49;15.50;83.10
6714;DHT22;3394;51.246;6.792;2022-07-01T03:12:47;15.50;82.40
6714;DHT22;3394;51.246;6.792;2022-07-01T03:13:46;15.40;82.30
6714;DHT22;3394;51.246;6.792;2022-07-01T03:14:44;15.40;82.60
6714;DHT22;3394;51.246;6.792;2022-07-01T03:15:42;15.50;83.00
6714;DHT22;3394;51.246;6.792;2022-07-01T03:16:40;15.40;82.90
6714;DHT22;3394;51.246;6.792;2022-07-01T03:17:40;15.40;82.30
6714;DHT22;3394;51.246;6.792;2022-07-01T03:18:39;15.40;82.30
6714;DHT22;3394;51.246;6.792;2022-07-01T03:19:37;15.40;82.30
6714;DHT22;3394;51.246;6.792;2022-07-01T03:20:36;15.40;82.60
6714;DHT22;3394;51.246;6.792;2022-07-01T03:21:33;15.40;82.30
6714;DHT22;3394;51.246;6.792;2022-07-01T03:22:33;15.40;82.70
6714;DHT22;3394;51.246;6.792;2022-07-01T03:23:31;15.40;82.30
6714;DHT22;3394;51.246;6.792;2022-07-01T03:24:30;15.40;82.30
6714;DHT22;3394;51.246;6.792;2022-07-01T03:25:28;15.40;82.30
6714;DHT22;3394;51.246;6.792;2022-07-01T03:26:28;15.30;82.90
6714;DHT22;3394;51.246;6.792;2022-07-01T03:27:26;15.30;82.20
6714;DHT22;3394;51.246;6.792;2022-07-01T03:28:25;15.30;82.80
6714;DHT22;3394;51.246;6.792;2022-07-01T03:29:23;15.30;83.20
6714;DHT22;3394;51.246;6.792;2022-07-01T03:30:21;15.30;83.20
6714;DHT22;3394;51.246;6.792;2022-07-01T03:31:19;15.30;83.00
6714;DHT22;3394;51.246;6.792;2022-07-01T03:32:18;15.40;83.20
6714;DHT22;3394;51.246;6.792;2022-07-01T03:33:16;15.40;83.10
6714;DHT22;3394;51.246;6.792;2022-07-01T03:34:15;15.40;83.40
6714;DHT22;3394;51.246;6.792;2022-07-01T03:35:13;15.40;83.20
6714;DHT22;3394;51.246;6.792;2022-07-01T03:36:29;15.40;82.40
6714;DHT22;3394;51.246;6.792;2022-07-01T03:37:28;15.40;82.30
6714;DHT22;3394;51.246;6.792;2022-07-01T03:38:26;15.40;82.30
6714;DHT22;3394;51.246;6.792;2022-07-01T03:39:25;15.40;83.10
6714;DHT22;3394;51.246;6.792;2022-07-01T03:40:23;15.40;82.30
6714;DHT22;3394;51.246;6.792;2022-07-01T03:41:22;15.50;82.80
6714;DHT22;3394;51.246;6.792;2022-07-01T03:42:21;15.50;82.50
6714;DHT22;3394;51.246;6.792;2022-07-01T03:43:20;15.50;83.10
6714;DHT22;3394;51.246;6.792;2022-07-01T03:44:17;15.50;82.70
6714;DHT22;3394;51.246;6.792;2022-07-01T03:45:16;15.50;82.90
6714;DHT22;3394;51.246;6.792;2022-07-01T03:46:14;15.50;82.60
6714;DHT22;3394;51.246;6.792;2022-07-01T03:47:13;15.50;82.40
6714;DHT22;3394;51.246;6.792;2022-07-01T03:48:11;15.60;82.60
6714;DHT22;3394;51.246;6.792;2022-07-01T03:49:10;15.60;83.10
6714;DHT22;3394;51.246;6.792;2022-07-01T03:50:08;15.50;82.40
6714;DHT22;3394;51.246;6.792;2022-07-01T03:51:07;15.60;82.50
6714;DHT22;3394;51.246;6.792;2022-07-01T03:52:06;15.50;82.50
6714;DHT22;3394;51.246;6.792;2022-07-01T03:53:04;15.50;82.80
6714;DHT22;3394;51.246;6.792;2022-07-01T03:54:21;15.50;82.40
6714;DHT22;3394;51.246;6.792;2022-07-01T03:55:30;15.50;82.40
6714;DHT22;3394;51.246;6.792;2022-07-01T03:56:29;15.50;82.40
6714;DHT22;3394;51.246;6.792;2022-07-01T03:57:28;15.40;83.00
6714;DHT22;3394;51.246;6.792;2022-07-01T03:58:27;15.50;83.30
6714;DHT22;3394;51.246;6.792;2022-07-01T03:59:25;15.40;83.30
6714;DHT22;3394;51.246;6.792;2022-07-01T04:00:24;15.40;83.60
6714;DHT22;3394;51.246;6.792;2022-07-01T04:01:23;15.40;84.00
6714;DHT22;3394;51.246;6.792;2022-07-01T04:02:21;15.40;84.60
6714;DHT22;3394;51.246;6.792;2022-07-01T04:03:19;15.40;84.40
6714;DHT22;3394;51.246;6.792;2022-07-01T04:04:18;15.40;84.60
6714;DHT22;3394;51.246;6.792;2022-07-01T04:05:16;15.50;84.80
6714;DHT22;3394;51.246;6.792;2022-07-01T04:06:15;15.50;83.90
6714;DHT22;3394;51.246;6.792;2022-07-01T04:07:13;15.50;84.00
6714;DHT22;3394;51.246;6.792;2022-07-01T04:08:12;15.50;84.70
6714;DHT22;3394;51.246;6.792;2022-07-01T04:09:12;15.50;85.80
6714;DHT22;3394;51.246;6.792;2022-07-01T04:10:12;15.50;84.40
6714;DHT22;3394;51.246;6.792;2022-07-01T04:11:10;15.50;84.20
6714;DHT22;3394;51.246;6.792;2022-07-01T04:12:10;15.60;83.80
6714;DHT22;3394;51.246;6.792;2022-07-01T04:13:11;15.60;83.60
6714;DHT22;3394;51.246;6.792;2022-07-01T04:14:10;15.60;84.10
6714;DHT22;3394;51.246;6.792;2022-07-01T04:15:09;15.60;84.00
6714;DHT22;3394;51.246;6.792;2022-07-01T04:16:08;15.60;84.60
6714;DHT22;3394;51.246;6.792;2022-07-01T04:17:06;15.60;85.20
6714;DHT22;3394;51.246;6.792;2022-07-01T04:18:05;15.60;85.50
6714;DHT22;3394;51.246;6.792;2022-07-01T04:19:04;15.60;84.10
6714;DHT22;3394;51.246;6.792;2022-07-01T04:20:04;15.60;83.20
6714;DHT22;3394;51.246;6.792;2022-07-01T04:21:03;15.60;82.70
6714;DHT22;3394;51.246;6.792;2022-07-01T04:22:20;15.60;82.90
6714;DHT22;3394;51.246;6.792;2022-07-01T04:23:33;15.60;83.90
6714;DHT22;3394;51.246;6.792;2022-07-01T04:24:31;15.60;84.30
6714;DHT22;3394;51.246;6.792;2022-07-01T04:25:31;15.60;84.30
6714;DHT22;3394;51.246;6.792;2022-07-01T04:26:29;15.60;84.30
6714;DHT22;3394;51.246;6.792;2022-07-01T04:27:28;15.60;84.00
6714;DHT22;3394;51.246;6.792;2022-07-01T04:28:27;15.60;83.50
6714;DHT22;3394;51.246;6.792;2022-07-01T04:29:26;15.60;84.60
6714;DHT22;3394;51.246;6.792;2022-07-01T04:30:26;15.70;84.40
6714;DHT22;3394;51.246;6.792;2022-07-01T04:31:25;15.60;83.40
6714;DHT22;3394;51.246;6.792;2022-07-01T04:32:24;15.60;82.90
6714;DHT22;3394;51.246;6.792;2022-07-01T04:33:23;15.60;83.30
6714;DHT22;3394;51.246;6.792;2022-07-01T04:34:21;15.60;83.50
6714;DHT22;3394;51.246;6.792;2022-07-01T04:35:20;15.60;83.40
6714;DHT22;3394;51.246;6.792;2022-07-01T04:36:18;15.60;83.20
6714;DHT22;3394;51.246;6.792;2022-07-01T04:37:17;15.60;83.20
6714;DHT22;3394;51.246;6.792;2022-07-01T04:38:17;15.60;83.40
6714;DHT22;3394;51.246;6.792;2022-07-01T04:39:15;15.60;83.60
6714;DHT22;3394;51.246;6.792;2022-07-01T04:40:13;15.60;83.40
6714;DHT22;3394;51.246;6.792;2022-07-01T04:41:12;15.60;82.50
6714;DHT22;3394;51.246;6.792;2022-07-01T04:42:29;15.50;82.40
6714;DHT22;3394;51.246;6.792;2022-07-01T04:43:28;15.60;82.80
6714;DHT22;3394;51.246;6.792;2022-07-01T04:44:28;15.50;82.80
6714;DHT22;3394;51.246;6.792;2022-07-01T04:45:26;15.50;83.60
6714;DHT22;3394;51.246;6.792;2022-07-01T04:46:25;15.50;83.10
6714;DHT22;3394;51.246;6.792;2022-07-01T04:47:23;15.50;83.20
6714;DHT22;3394;51.246;6.792;2022-07-01T04:48:22;15.50;83.10
6714;DHT22;3394;51.246;6.792;2022-07-01T04:49:20;15.60;83.60
6714;DHT22;3394;51.246;6.792;2022-07-01T04:50:19;15.50;83.30
6714;DHT22;3394;51.246;6.792;2022-07-01T04:51:18;15.60;83.80
6714;DHT22;3394;51.246;6.792;2022-07-01T04:52:15;15.50;83.90
6714;DHT22;3394;51.246;6.792;2022-07-01T04:53:14;15.60;83.30
6714;DHT22;3394;51.246;6.792;2022-07-01T04:54:12;15.60;83.60
6714;DHT22;3394;51.246;6.792;2022-07-01T04:55:11;15.60;84.30
6714;DHT22;3394;51.246;6.792;2022-07-01T04:56:10;15.60;83.80
6714;DHT22;3394;51.246;6.792;2022-07-01T04:57:08;15.60;83.00
6714;DHT22;3394;51.246;6.792;2022-07-01T04:58:07;15.60;83.20
6714;DHT22;3394;51.246;6.792;2022-07-01T04:59:06;15.60;82.90
6714;DHT22;3394;51.246;6.792;2022-07-01T05:00:06;15.60;83.30
6714;DHT22;3394;51.246;6.792;2022-07-01T05:01:04;15.60;83.90
6714;DHT22;3394;51.246;6.792;2022-07-01T05:02:03;15.50;83.90
6714;DHT22;3394;51.246;6.792;2022-07-01T05:03:02;15.60;84.30
6714;DHT22;3394;51.246;6.792;2022-07-01T05:04:00;15.60;84.20
6714;DHT22;3394;51.246;6.792;2022-07-01T05:04:59;15.60;84.60
6714;DHT22;3394;51.246;6.792;2022-07-01T05:05:58;15.60;83.50
6714;DHT22;3394;51.246;6.792;2022-07-01T05:06:56;15.60;83.30
6714;DHT22;3394;51.246;6.792;2022-07-01T05:07:55;15.60;83.40
6714;DHT22;3394;51.246;6.792;2022-07-01T05:08:53;15.60;83.50
6714;DHT22;3394;51.246;6.792;2022-07-01T05:09:52;15.60;83.50
6714;DHT22;3394;51.246;6.792;2022-07-01T05:10:51;15.60;83.80
6714;DHT22;3394;51.246;6.792;2022-07-01T05:11:48;15.70;82.60
6714;DHT22;3394;51.246;6.792;2022-07-01T05:12:47;15.70;82.60
6714;DHT22;3394;51.246;6.792;2022-07-01T05:13:45;15.70;82.60
6714;DHT22;3394;51.246;6.792;2022-07-01T05:14:45;15.70;81.90
6714;DHT22;3394;51.246;6.792;2022-07-01T05:15:43;15.70;82.60
6714;DHT22;3394;51.246;6.792;2022-07-01T05:16:42;15.60;82.00
6714;DHT22;3394;51.246;6.792;2022-07-01T05:17:40;15.60;82.00
6714;DHT22;3394;51.246;6.792;2022-07-01T05:18:56;15.60;82.50
6714;DHT22;3394;51.246;6.792;2022-07-01T05:20:12;15.60;82.50
6714;DHT22;3394;51.246;6.792;2022-07-01T05:21:29;15.60;82.50
6714;DHT22;3394;51.246;6.792;2022-07-01T05:22:59;15.60;82.50
6714;DHT22;3394;51.246;6.792;2022-07-01T05:23:58;15.60;82.50
6714;DHT22;3394;51.246;6.792;2022-07-01T05:24:56;15.60;82.50
6714;DHT22;3394;51.246;6.792;2022-07-01T05:25:55;15.60;82.50
6714;DHT22;3394;51.246;6.792;2022-07-01T05:26:53;15.60;82.50
6714;DHT22;3394;51.246;6.792;2022-07-01T05:27:52;15.60;82.60
6714;DHT22;3394;51.246;6.792;2022-07-01T05:28:52;15.60;82.90
6714;DHT22;3394;51.246;6.792;2022-07-01T05:29:51;15.60;83.20
6714;DHT22;3394;51.246;6.792;2022-07-01T05:30:51;15.60;83.10
6714;DHT22;3394;51.246;6.792;2022-07-01T05:31:49;15.60;83.00
6714;DHT22;3394;51.246;6.792;2022-07-01T05:32:48;15.70;83.50
6714;DHT22;3394;51.246;6.792;2022-07-01T05:33:46;15.70;82.60
6714;DHT22;3394;51.246;6.792;2022-07-01T05:34:45;15.70;82.60
6714;DHT22;3394;51.246;6.792;2022-07-01T05:35:43;15.70;82.60
6714;DHT22;3394;51.246;6.792;2022-07-01T05:36:41;15.70;82.60
6714;DHT22;3394;51.246;6.792;2022-07-01T05:37:39;15.70;82.60
6714;DHT22;3394;51.246;6.792;2022-07-01T05:38:38;15.70;83.30
6714;DHT22;3394;51.246;6.792;2022-07-01T05:39:36;15.70;82.00
6714;DHT22;3394;51.246;6.792;2022-07-01T05:40:35;15.70;82.60
6714;DHT22;3394;51.246;6.792;2022-07-01T05:41:33;15.70;82.60
6714;DHT22;3394;51.246;6.792;2022-07-01T05:42:32;15.70;82.10
6714;DHT22;3394;51.246;6.792;2022-07-01T05:43:30;15.60;82.50
6714;DHT22;3394;51.246;6.792;2022-07-01T05:44:29;15.60;82.50
6714;DHT22;3394;51.246;6.792;2022-07-01T05:45:29;15.60;82.50
6714;DHT22;3394;51.246;6.792;2022-07-01T05:46:27;15.60;82.10
6714;DHT22;3394;51.246;6.792;2022-07-01T05:47:26;15.50;81.20
6714;DHT22;3394;51.246;6.792;2022-07-01T05:48:24;15.50;81.40
6714;DHT22;3394;51.246;6.792;2022-07-01T05:49:23;15.50;81.80
6714;DHT22;3394;51.246;6.792;2022-07-01T05:50:22;15.50;82.50
6714;DHT22;3394;51.246;6.792;2022-07-01T05:51:20;15.40;82.30
6714;DHT22;3394;51.246;6.792;2022-07-01T05:52:18;15.40;81.80
6714;DHT22;3394;51.246;6.792;2022-07-01T05:53:18;15.40;82.30
6714;DHT22;3394;51.246;6.792;2022-07-01T05:54:16;15.40;82.30
6714;DHT22;3394;51.246;6.792;2022-07-01T05:55:15;15.40;82.30
6714;DHT22;3394;51.246;6.792;2022-07-01T05:56:13;15.40;83.00
6714;DHT22;3394;51.246;6.792;2022-07-01T05:57:12;15.50;82.90
6714;DHT22;3394;51.246;6.792;2022-07-01T05:58:11;15.50;83.30
6714;DHT22;3394;51.246;6.792;2022-07-01T05:59:09;15.50;82.40
6714;DHT22;3394;51.246;6.792;2022-07-01T06:00:09;15.50;82.40
6714;DHT22;3394;51.246;6.792;2022-07-01T06:01:09;15.50;82.40
6714;DHT22;3394;51.246;6.792;2022-07-01T06:02:08;15.50;82.40
6714;DHT22;3394;51.246;6.792;2022-07-01T06:03:07;15.60;81.70
6714;DHT22;3394;51.246;6.792;2022-07-01T06:04:04;15.60;81.60
6714;DHT22;3394;51.246;6.792;2022-07-01T06:05:04;15.60;81.80
6714;DHT22;3394;51.246;6.792;2022-07-01T06:06:02;15.60;81.40
6714;DHT22;3394;51.246;6.792;2022-07-01T06:07:01;15.60;81.90
6714;DHT22;3394;51.246;6.792;2022-07-01T06:07:59;15.50;82.40
6714;DHT22;3394;51.246;6.792;2022-07-01T06:08:58;15.60;82.50
6714;DHT22;3394;51.246;6.792;2022-07-01T06:09:56;15.60;82.50
6714;DHT22;3394;51.246;6.792;2022-07-01T06:10:55;15.60;84.30
6714;DHT22;3394;51.246;6.792;2022-07-01T06:11:53;15.70;83.80
6714;DHT22;3394;51.246;6.792;2022-07-01T06:12:52;15.70;83.60
6714;DHT22;3394;51.246;6.792;2022-07-01T06:13:50;15.70;83.20
6714;DHT22;3394;51.246;6.792;2022-07-01T06:14:49;15.80;81.60
6714;DHT22;3394;51.246;6.792;2022-07-01T06:15:47;15.80;81.40
6714;DHT22;3394;51.246;6.792;2022-07-01T06:16:47;15.80;81.60
6714;DHT22;3394;51.246;6.792;2022-07-01T06:17:45;15.80;81.90
6714;DHT22;3394;51.246;6.792;2022-07-01T06:18:44;15.90;82.70
6714;DHT22;3394;51.246;6.792;2022-07-01T06:19:43;15.90;81.30
6714;DHT22;3394;51.246;6.792;2022-07-01T06:20:41;15.90;80.70
6714;DHT22;3394;51.246;6.792;2022-07-01T06:21:40;15.90;79.50
6714;DHT22;3394;51.246;6.792;2022-07-01T06:22:38;15.90;80.10
6714;DHT22;3394;51.246;6.792;2022-07-01T06:23:36;15.90;80.20
6714;DHT22;3394;51.246;6.792;2022-07-01T06:24:35;16.00;80.80
6714;DHT22;3394;51.246;6.792;2022-07-01T06:25:34;15.90;79.10
6714;DHT22;3394;51.246;6.792;2022-07-01T06:26:32;15.90;78.70